Time;durP1;ratioP1;P1;durP2;ratioP2;P2;SDS_P1;SDS_P2;PMS_P1;PMS_P2;Temp;Humidity;BMP_temperature;BMP_pressure;BME280_temperature;BME280_humidity;BME280_pressure;Samples;Min_cycle;Max_cycle;Signal;HPM_P1;HPM_P2
2021/05/24 00:00:31;;;;;;;8.70;8.00;;;;;;;;;;4987241;28;20191;-48
2021/05/24 00:02:56;;;;;;;8.10;7.40;;;;;;;;;;4988487;28;20182;-48
2021/05/24 00:05:23;;;;;;;7.20;6.60;;;;;;;;;;4986388;28;20208;-48
2021/05/24 00:07:48;;;;;;;7.37;6.83;;;;;;;;;;4989176;28;20181;-48
2021/05/24 00:10:16;;;;;;;7.90;7.30;;;;;;;;;;4986879;28;20603;-49
2021/05/24 00:12:47;;;;;;;7.73;7.23;;;;;;;;;;4985404;28;20189;-48
2021/05/24 00:15:13;;;;;;;7.90;7.30;;;;;;;;;;4987067;28;20696;-47
2021/05/24 00:17:38;;;;;;;8.27;7.57;;;;;;;;;;4986799;28;20627;-47
2021/05/24 00:20:03;;;;;;;7.37;6.77;;;;;;;;;;4987164;28;20605;-48
2021/05/24 00:22:28;;;;;;;7.60;7.00;;;;;;;;;;4987605;28;20550;-48
2021/05/24 00:24:53;;;;;;;7.60;7.00;;;;;;;;;;4986763;28;20200;-48
2021/05/24 00:27:19;;;;;;;7.13;6.63;;;;;;;;;;4987980;28;20275;-47
2021/05/24 00:29:44;;;;;;;7.40;6.80;;;;;;;;;;4986835;28;20224;-48
2021/05/24 00:32:09;;;;;;;6.80;6.30;;;;;;;;;;4979516;28;20177;-45
2021/05/24 00:34:34;;;;;;;7.10;6.57;;;;;;;;;;4984330;28;20267;-46
2021/05/24 00:36:59;;;;;;;6.30;5.80;;;;;;;;;;4991566;28;20354;-46
2021/05/24 00:39:24;;;;;;;7.00;6.50;;;;;;;;;;4986619;28;20180;-46
2021/05/24 00:41:50;;;;;;;6.25;5.85;;;;;;;;;;4987242;28;20180;-46
2021/05/24 00:44:15;;;;;;;6.30;5.80;;;;;;;;;;4992273;28;20208;-46
2021/05/24 00:46:40;;;;;;;5.77;5.37;;;;;;;;;;4986485;28;20181;-47
2021/05/24 00:49:06;;;;;;;5.60;5.20;;;;;;;;;;4987315;28;20208;-46
2021/05/24 00:51:32;;;;;;;5.30;4.90;;;;;;;;;;4986586;28;20355;-47
2021/05/24 00:53:57;;;;;;;5.70;5.20;;;;;;;;;;4988928;28;20240;-48
2021/05/24 00:56:22;;;;;;;5.70;5.30;;;;;;;;;;4995900;28;20185;-47
2021/05/24 00:58:48;;;;;;;5.70;5.30;;;;;;;;;;4986331;28;20376;-46
2021/05/24 01:01:13;;;;;;;4.83;4.43;;;;;;;;;;4987242;28;20643;-46
2021/05/24 01:03:38;;;;;;;4.80;4.38;;;;;;;;;;4986320;28;20258;-47
2021/05/24 01:06:04;;;;;;;4.37;4.07;;;;;;;;;;4986963;28;20213;-47
2021/05/24 01:08:29;;;;;;;4.33;4.03;;;;;;;;;;4985219;28;20181;-47
2021/05/24 01:10:55;;;;;;;4.20;3.90;;;;;;;;;;4985502;28;20238;-47
2021/05/24 01:13:20;;;;;;;4.93;4.53;;;;;;;;;;4985918;28;20204;-47
2021/05/24 01:15:45;;;;;;;5.33;4.83;;;;;;;;;;4986315;28;20616;-47
2021/05/24 01:18:10;;;;;;;4.47;4.17;;;;;;;;;;4984743;28;20188;-47
2021/05/24 01:20:36;;;;;;;5.10;4.70;;;;;;;;;;4986644;28;20192;-46
2021/05/24 01:25:27;;;;;;;4.13;3.93;;;;;;;;;;4986294;28;20212;-47
2021/05/24 01:27:52;;;;;;;5.30;4.80;;;;;;;;;;4984863;28;20628;-46
2021/05/24 01:30:18;;;;;;;5.37;4.97;;;;;;;;;;4986523;28;20229;-47
2021/05/24 01:32:43;;;;;;;5.47;5.03;;;;;;;;;;4980525;28;20189;-46
2021/05/24 01:35:08;;;;;;;4.70;4.40;;;;;;;;;;4985113;28;20177;-47
2021/05/24 01:37:33;;;;;;;5.63;5.23;;;;;;;;;;4989408;28;20275;-47
2021/05/24 01:39:59;;;;;;;5.57;5.17;;;;;;;;;;4990708;28;20251;-47
2021/05/24 01:42:25;;;;;;;5.93;5.43;;;;;;;;;;4992325;28;20255;-47
2021/05/24 01:44:50;;;;;;;5.10;4.70;;;;;;;;;;4985277;28;20715;-46
2021/05/24 01:47:15;;;;;;;5.97;5.17;;;;;;;;;;4989640;28;20652;-47
2021/05/24 01:49:46;;;;;;;5.40;4.90;;;;;;;;;;4987971;28;20176;-47
2021/05/24 01:52:12;;;;;;;5.13;4.63;;;;;;;;;;4989856;28;20536;-47
2021/05/24 01:54:37;;;;;;;5.50;5.10;;;;;;;;;;4990760;28;20596;-47
2021/05/24 01:57:02;;;;;;;5.38;5.03;;;;;;;;;;4987439;28;20541;-47
2021/05/24 01:59:28;;;;;;;5.40;4.90;;;;;;;;;;4990085;28;20731;-47
2021/05/24 02:01:53;;;;;;;5.68;5.10;;;;;;;;;;4987352;28;20172;-47
2021/05/24 02:04:18;;;;;;;5.40;4.97;;;;;;;;;;4996219;28;20207;-47
2021/05/24 02:06:43;;;;;;;6.20;5.70;;;;;;;;;;4990606;28;20783;-47
2021/05/24 02:09:08;;;;;;;5.23;4.83;;;;;;;;;;4990338;28;20213;-46
2021/05/24 02:11:34;;;;;;;6.30;5.75;;;;;;;;;;4992655;28;20164;-46
2021/05/24 02:13:59;;;;;;;6.30;5.43;;;;;;;;;;4988367;28;20215;-47
2021/05/24 02:16:45;;;;;;;5.40;4.90;;;;;;;;;;4991114;28;20668;-46
2021/05/24 02:19:11;;;;;;;6.33;5.83;;;;;;;;;;4997530;28;20183;-46
2021/05/24 02:21:38;;;;;;;5.30;4.80;;;;;;;;;;4991551;28;20593;-47
2021/05/24 02:24:04;;;;;;;5.80;5.33;;;;;;;;;;4989206;28;20641;-46
2021/05/24 02:26:29;;;;;;;5.60;5.20;;;;;;;;;;4987269;28;20583;-47
2021/05/24 02:28:54;;;;;;;5.33;4.83;;;;;;;;;;4988019;28;20607;-46
2021/05/24 02:31:20;;;;;;;5.27;4.87;;;;;;;;;;4988869;28;20226;-46
2021/05/24 02:33:46;;;;;;;5.60;5.30;;;;;;;;;;4992997;28;20189;-47
2021/05/24 02:36:11;;;;;;;4.90;4.60;;;;;;;;;;4988958;28;20173;-46
2021/05/24 02:38:36;;;;;;;6.38;5.88;;;;;;;;;;4988628;28;20600;-46
2021/05/24 02:41:01;;;;;;;6.13;5.65;;;;;;;;;;4986098;28;20194;-47
2021/05/24 02:43:26;;;;;;;5.67;5.27;;;;;;;;;;4988076;28;20261;-45
2021/05/24 02:45:52;;;;;;;5.30;4.90;;;;;;;;;;4988624;28;20742;-46
2021/05/24 02:48:17;;;;;;;6.00;5.50;;;;;;;;;;4985889;28;20214;-46
2021/05/24 02:50:42;;;;;;;5.82;5.40;;;;;;;;;;4989368;28;20249;-46
2021/05/24 02:53:07;;;;;;;6.30;5.80;;;;;;;;;;4985188;28;20707;-45
2021/05/24 02:55:32;;;;;;;5.97;5.37;;;;;;;;;;4990240;28;20185;-47
2021/05/24 02:57:58;;;;;;;6.00;5.47;;;;;;;;;;4986434;28;20200;-46
2021/05/24 03:00:26;;;;;;;5.90;5.40;;;;;;;;;;4991100;28;20207;-47
2021/05/24 03:02:51;;;;;;;5.97;5.57;;;;;;;;;;4989071;28;20181;-47
2021/05/24 03:05:17;;;;;;;5.33;4.97;;;;;;;;;;4988712;28;21009;-46
2021/05/24 03:07:43;;;;;;;6.60;6.10;;;;;;;;;;4988901;28;20201;-46
2021/05/24 03:10:08;;;;;;;6.37;5.83;;;;;;;;;;4989438;28;20650;-47
2021/05/24 03:12:33;;;;;;;6.53;5.93;;;;;;;;;;4987678;28;20174;-47
2021/05/24 03:14:59;;;;;;;6.23;5.73;;;;;;;;;;4988341;28;20200;-46
2021/05/24 03:17:24;;;;;;;5.97;5.47;;;;;;;;;;4988655;28;20201;-47
2021/05/24 03:19:49;;;;;;;6.47;5.90;;;;;;;;;;4988826;28;20611;-46
2021/05/24 03:22:14;;;;;;;6.80;6.20;;;;;;;;;;5000952;28;20189;-46
2021/05/24 03:24:39;;;;;;;5.37;4.97;;;;;;;;;;4986705;28;20254;-46
2021/05/24 03:27:05;;;;;;;6.00;5.50;;;;;;;;;;4985288;28;20184;-47
2021/05/24 03:29:30;;;;;;;5.87;5.33;;;;;;;;;;4988316;28;20303;-48
2021/05/24 03:31:55;;;;;;;5.93;5.43;;;;;;;;;;4988838;28;20184;-46
2021/05/24 03:34:20;;;;;;;5.32;4.80;;;;;;;;;;4972669;28;20225;-47
2021/05/24 03:36:45;;;;;;;5.25;4.85;;;;;;;;;;4984177;28;20461;-46
2021/05/24 03:39:10;;;;;;;5.63;4.73;;;;;;;;;;4987817;28;20692;-47
2021/05/24 03:41:36;;;;;;;6.10;5.60;;;;;;;;;;4986350;28;20244;-47
2021/05/24 03:44:01;;;;;;;5.67;5.27;;;;;;;;;;4987646;28;20284;-48
2021/05/24 03:46:26;;;;;;;5.20;4.70;;;;;;;;;;4987171;28;20180;-46
2021/05/24 03:48:51;;;;;;;5.87;5.37;;;;;;;;;;4986864;28;20182;-47
2021/05/24 03:51:17;;;;;;;5.47;5.07;;;;;;;;;;4997932;28;20176;-48
2021/05/24 03:53:42;;;;;;;4.97;4.57;;;;;;;;;;4985604;28;20544;-46
2021/05/24 03:56:07;;;;;;;5.50;5.00;;;;;;;;;;4994219;28;20186;-46
2021/05/24 03:58:32;;;;;;;5.40;4.85;;;;;;;;;;4987456;28;20170;-46
2021/05/24 04:00:57;;;;;;;4.60;4.20;;;;;;;;;;4984977;28;20271;-46
2021/05/24 04:03:23;;;;;;;4.17;3.93;;;;;;;;;;4992168;28;20556;-46
2021/05/24 04:05:52;;;;;;;4.93;4.53;;;;;;;;;;4987107;28;20170;-46
2021/05/24 04:08:17;;;;;;;4.60;4.20;;;;;;;;;;4987384;28;20182;-46
2021/05/24 04:10:55;;;;;;;4.30;3.75;;;;;;;;;;4986637;28;20605;-46
2021/05/24 04:13:20;;;;;;;4.60;4.23;;;;;;;;;;4983398;28;20179;-46
2021/05/24 04:15:49;;;;;;;3.97;3.70;;;;;;;;;;4980159;28;20606;-47
2021/05/24 04:18:16;;;;;;;4.10;3.70;;;;;;;;;;4986679;28;20277;-47
2021/05/24 04:20:43;;;;;;;4.50;3.97;;;;;;;;;;4985127;28;20612;-47
2021/05/24 04:23:08;;;;;;;4.17;3.70;;;;;;;;;;4986385;28;21398;-46
2021/05/24 04:25:33;;;;;;;3.72;3.53;;;;;;;;;;4986807;28;20636;-46
2021/05/24 04:27:58;;;;;;;4.22;3.92;;;;;;;;;;4984190;28;20575;-46
2021/05/24 04:30:24;;;;;;;3.80;3.50;;;;;;;;;;4986533;28;20313;-47
2021/05/24 04:32:49;;;;;;;4.10;3.80;;;;;;;;;;4986687;28;20180;-47
2021/05/24 04:35:16;;;;;;;4.00;3.70;;;;;;;;;;4986451;28;20177;-46
2021/05/24 04:37:41;;;;;;;3.80;3.50;;;;;;;;;;4992050;28;20693;-47
2021/05/24 04:40:06;;;;;;;4.38;3.97;;;;;;;;;;4988521;28;20699;-46
2021/05/24 04:42:32;;;;;;;3.60;3.40;;;;;;;;;;4997709;28;20576;-47
2021/05/24 04:44:57;;;;;;;4.23;3.83;;;;;;;;;;4986719;28;20570;-47
2021/05/24 04:47:22;;;;;;;2.75;2.55;;;;;;;;;;4984561;28;20262;-46
2021/05/24 04:49:50;;;;;;;3.22;3.03;;;;;;;;;;4993520;28;20186;-47
2021/05/24 04:52:15;;;;;;;3.67;3.37;;;;;;;;;;4998157;28;20168;-46
2021/05/24 04:54:41;;;;;;;4.27;3.30;;;;;;;;;;4998329;28;20603;-47
2021/05/24 04:57:06;;;;;;;3.57;3.27;;;;;;;;;;4986517;28;20193;-47
2021/05/24 04:59:31;;;;;;;3.80;3.50;;;;;;;;;;4985809;28;20586;-47
2021/05/24 05:01:56;;;;;;;3.90;3.60;;;;;;;;;;4990349;28;20173;-47
2021/05/24 05:04:21;;;;;;;3.60;3.30;;;;;;;;;;4989318;28;20256;-47
2021/05/24 05:06:46;;;;;;;4.40;4.00;;;;;;;;;;4987680;28;20558;-47
2021/05/24 05:09:11;;;;;;;3.50;3.30;;;;;;;;;;4984489;28;20173;-48
2021/05/24 05:11:37;;;;;;;3.47;3.20;;;;;;;;;;4992927;28;20616;-47
2021/05/24 05:14:05;;;;;;;3.67;3.37;;;;;;;;;;4989871;28;20175;-47
2021/05/24 05:16:30;;;;;;;4.07;3.67;;;;;;;;;;5000787;28;20226;-48
2021/05/24 05:18:55;;;;;;;3.90;3.60;;;;;;;;;;4991683;28;20641;-47
2021/05/24 05:21:21;;;;;;;3.33;3.03;;;;;;;;;;4983367;28;20214;-47
2021/05/24 05:23:46;;;;;;;3.33;3.13;;;;;;;;;;4979201;28;20214;-47
2021/05/24 05:26:11;;;;;;;3.93;3.63;;;;;;;;;;4987380;28;20224;-48
2021/05/24 05:28:36;;;;;;;3.53;3.23;;;;;;;;;;4990035;28;20229;-47
2021/05/24 05:31:02;;;;;;;4.40;4.00;;;;;;;;;;4990094;28;20232;-47
2021/05/24 05:33:27;;;;;;;3.67;3.40;;;;;;;;;;4975127;28;20182;-48
2021/05/24 05:35:56;;;;;;;3.93;3.63;;;;;;;;;;4987199;28;20251;-47
2021/05/24 05:38:21;;;;;;;3.63;3.37;;;;;;;;;;4985903;28;20176;-48
2021/05/24 05:40:49;;;;;;;3.70;3.40;;;;;;;;;;4989813;28;20611;-48
2021/05/24 05:43:14;;;;;;;3.80;3.60;;;;;;;;;;4988704;28;20172;-47
2021/05/24 05:45:39;;;;;;;4.20;3.80;;;;;;;;;;4986232;28;20663;-48
2021/05/24 05:48:05;;;;;;;3.10;2.90;;;;;;;;;;4985847;28;20830;-48
2021/05/24 05:50:30;;;;;;;4.00;3.63;;;;;;;;;;4990491;28;20177;-48
2021/05/24 05:52:57;;;;;;;3.97;3.67;;;;;;;;;;4994298;28;20473;-47
2021/05/24 05:55:22;;;;;;;4.60;4.30;;;;;;;;;;4991569;28;20171;-47
2021/05/24 05:57:48;;;;;;;3.93;3.63;;;;;;;;;;4986698;28;20762;-48
2021/05/24 06:00:13;;;;;;;4.57;4.17;;;;;;;;;;4992906;28;20341;-47
2021/05/24 06:02:38;;;;;;;4.27;3.93;;;;;;;;;;4989976;28;20194;-48
2021/05/24 06:05:04;;;;;;;4.20;3.80;;;;;;;;;;4989480;28;20471;-48
2021/05/24 06:07:29;;;;;;;4.00;3.70;;;;;;;;;;4985967;28;20193;-45
2021/05/24 06:09:54;;;;;;;4.10;3.80;;;;;;;;;;4989749;28;20226;-48
2021/05/24 06:12:19;;;;;;;4.20;3.90;;;;;;;;;;4987445;28;20272;-48
2021/05/24 06:14:44;;;;;;;3.97;3.67;;;;;;;;;;4990617;28;20182;-47
2021/05/24 06:17:10;;;;;;;4.23;3.90;;;;;;;;;;4989312;28;20183;-48
2021/05/24 06:19:35;;;;;;;4.00;3.70;;;;;;;;;;4988602;28;20244;-48
2021/05/24 06:22:00;;;;;;;4.10;3.80;;;;;;;;;;4988940;28;20583;-47
2021/05/24 06:24:25;;;;;;;4.17;3.87;;;;;;;;;;4988619;28;20240;-47
2021/05/24 06:26:51;;;;;;;4.70;4.30;;;;;;;;;;4985593;28;20247;-47
2021/05/24 06:29:23;;;;;;;4.60;4.20;;;;;;;;;;4988562;28;20267;-48
2021/05/24 06:31:49;;;;;;;4.23;3.93;;;;;;;;;;4987879;28;20216;-47
2021/05/24 06:34:14;;;;;;;4.80;4.27;;;;;;;;;;4985185;28;20622;-48
2021/05/24 06:36:39;;;;;;;4.53;4.13;;;;;;;;;;4986326;28;21018;-48
2021/05/24 06:39:05;;;;;;;3.95;3.65;;;;;;;;;;4987087;28;20177;-47
2021/05/24 06:41:31;;;;;;;4.23;3.83;;;;;;;;;;4989316;28;20174;-47
2021/05/24 06:43:56;;;;;;;4.10;3.80;;;;;;;;;;4990465;28;20240;-46
2021/05/24 06:46:21;;;;;;;4.60;4.20;;;;;;;;;;4987477;28;21367;-47
2021/05/24 06:48:46;;;;;;;4.30;4.00;;;;;;;;;;4988445;28;20368;-48
2021/05/24 06:51:11;;;;;;;4.05;3.80;;;;;;;;;;4996386;28;20193;-47
2021/05/24 06:53:37;;;;;;;4.37;4.00;;;;;;;;;;4982395;28;20177;-47
2021/05/24 06:56:02;;;;;;;4.97;3.95;;;;;;;;;;4987401;28;20212;-47
2021/05/24 06:58:27;;;;;;;4.00;3.70;;;;;;;;;;4993787;28;20188;-47
2021/05/24 07:00:52;;;;;;;3.88;3.58;;;;;;;;;;4995064;28;20647;-47
2021/05/24 07:03:17;;;;;;;3.50;3.30;;;;;;;;;;4997699;28;20276;-47
2021/05/24 07:05:42;;;;;;;4.97;3.63;;;;;;;;;;4996297;28;20235;-47
2021/05/24 07:08:08;;;;;;;3.63;3.43;;;;;;;;;;4988790;28;20223;-46
2021/05/24 07:10:33;;;;;;;5.20;3.30;;;;;;;;;;4987185;28;20183;-47
2021/05/24 07:12:58;;;;;;;4.50;4.10;;;;;;;;;;4985593;28;20179;-47
2021/05/24 07:15:23;;;;;;;3.80;3.50;;;;;;;;;;4992264;28;20187;-46
2021/05/24 07:17:48;;;;;;;3.13;2.93;;;;;;;;;;4985763;28;20234;-46
2021/05/24 07:20:14;;;;;;;4.20;3.70;;;;;;;;;;5002824;28;20184;-46
2021/05/24 07:22:39;;;;;;;3.60;3.30;;;;;;;;;;4988221;28;20185;-48
2021/05/24 07:25:05;;;;;;;3.57;3.27;;;;;;;;;;4987659;28;20204;-47
2021/05/24 07:27:30;;;;;;;3.63;3.33;;;;;;;;;;4987220;28;20173;-47
2021/05/24 07:29:56;;;;;;;3.87;3.57;;;;;;;;;;4986786;28;20984;-47
2021/05/24 07:32:21;;;;;;;4.10;3.70;;;;;;;;;;4986996;28;20522;-46
2021/05/24 07:34:46;;;;;;;4.20;3.80;;;;;;;;;;4987054;28;20183;-46
2021/05/24 07:37:11;;;;;;;3.37;3.10;;;;;;;;;;4984494;28;20636;-46
2021/05/24 07:39:36;;;;;;;4.80;3.80;;;;;;;;;;4978834;28;20197;-46
2021/05/24 07:42:02;;;;;;;4.30;3.60;;;;;;;;;;4987514;28;20555;-46
2021/05/24 07:44:28;;;;;;;4.43;3.53;;;;;;;;;;4987816;28;20195;-48
2021/05/24 07:46:53;;;;;;;4.27;3.47;;;;;;;;;;4984626;28;20558;-46
2021/05/24 07:49:20;;;;;;;3.47;3.27;;;;;;;;;;4984955;28;21507;-46
2021/05/24 07:51:45;;;;;;;3.73;3.43;;;;;;;;;;4984067;28;20639;-46
2021/05/24 07:54:10;;;;;;;4.10;3.80;;;;;;;;;;4987548;28;20692;-46
2021/05/24 07:56:35;;;;;;;4.40;3.85;;;;;;;;;;4987919;28;20176;-47
2021/05/24 07:59:01;;;;;;;4.40;4.05;;;;;;;;;;4987899;28;20291;-47
2021/05/24 08:01:26;;;;;;;4.63;4.22;;;;;;;;;;4987946;28;20184;-45
2021/05/24 08:03:51;;;;;;;3.87;3.57;;;;;;;;;;4987534;28;20300;-47
2021/05/24 08:06:16;;;;;;;3.70;3.50;;;;;;;;;;4987512;28;20179;-46
2021/05/24 08:08:42;;;;;;;4.30;4.00;;;;;;;;;;4985371;28;20179;-47
2021/05/24 08:11:07;;;;;;;4.13;3.83;;;;;;;;;;4988004;28;20209;-48
2021/05/24 08:13:33;;;;;;;4.10;3.80;;;;;;;;;;4983719;28;20601;-48
2021/05/24 08:15:58;;;;;;;4.20;3.80;;;;;;;;;;4986011;28;20173;-47
2021/05/24 08:18:23;;;;;;;4.30;4.00;;;;;;;;;;4987668;28;20184;-47
2021/05/24 08:20:50;;;;;;;4.03;3.72;;;;;;;;;;4985889;28;20397;-47
2021/05/24 08:23:15;;;;;;;3.43;3.23;;;;;;;;;;4998257;28;20178;-46
2021/05/24 08:25:40;;;;;;;4.05;3.75;;;;;;;;;;5004975;28;20620;-47
2021/05/24 08:28:05;;;;;;;3.50;3.20;;;;;;;;;;5005006;28;20198;-46
2021/05/24 08:30:31;;;;;;;3.78;3.47;;;;;;;;;;5004949;28;20210;-47
2021/05/24 08:32:56;;;;;;;4.60;3.80;;;;;;;;;;5007524;28;20226;-47
2021/05/24 08:35:22;;;;;;;3.70;3.40;;;;;;;;;;5006692;28;20585;-47
2021/05/24 08:37:47;;;;;;;3.63;3.33;;;;;;;;;;5005647;28;20189;-47
2021/05/24 08:40:12;;;;;;;3.42;3.20;;;;;;;;;;5006643;28;20177;-47
2021/05/24 08:42:42;;;;;;;3.57;3.27;;;;;;;;;;5006881;28;20782;-47
2021/05/24 08:45:08;;;;;;;3.33;3.13;;;;;;;;;;5007238;28;20208;-47
2021/05/24 08:47:33;;;;;;;3.47;3.23;;;;;;;;;;5003672;28;20666;-46
2021/05/24 08:49:58;;;;;;;3.30;3.10;;;;;;;;;;4989672;28;20609;-47
2021/05/24 08:52:24;;;;;;;3.17;2.97;;;;;;;;;;4986927;28;20175;-46
2021/05/24 08:54:49;;;;;;;4.00;3.57;;;;;;;;;;4985051;28;20321;-45
2021/05/24 08:57:14;;;;;;;3.90;3.60;;;;;;;;;;4987055;28;20637;-47
2021/05/24 08:59:39;;;;;;;3.17;2.97;;;;;;;;;;4999884;28;20349;-46
2021/05/24 09:02:04;;;;;;;3.40;3.10;;;;;;;;;;5006957;28;20259;-46
2021/05/24 09:04:39;;;;;;;3.03;2.80;;;;;;;;;;5006176;28;20270;-47
2021/05/24 09:07:04;;;;;;;3.23;2.93;;;;;;;;;;5005592;28;20255;-49
2021/05/24 09:09:29;;;;;;;3.17;2.80;;;;;;;;;;4984960;28;20605;-47
2021/05/24 09:11:55;;;;;;;2.80;2.60;;;;;;;;;;4985642;28;20635;-47
2021/05/24 09:14:21;;;;;;;2.47;2.37;;;;;;;;;;4985177;28;20180;-48
2021/05/24 09:16:56;;;;;;;2.70;2.50;;;;;;;;;;4987167;28;20663;-47
2021/05/24 09:19:22;;;;;;;2.97;2.60;;;;;;;;;;4986759;28;21199;-47
2021/05/24 09:21:55;;;;;;;2.40;2.20;;;;;;;;;;4984963;28;20691;-47
2021/05/24 09:24:20;;;;;;;2.00;1.90;;;;;;;;;;4984770;28;20220;-48
2021/05/24 09:26:45;;;;;;;2.40;2.20;;;;;;;;;;4987302;28;20577;-47
2021/05/24 09:29:11;;;;;;;2.40;2.30;;;;;;;;;;5000233;28;20208;-47
2021/05/24 09:31:36;;;;;;;2.70;2.30;;;;;;;;;;5006936;28;20651;-48
2021/05/24 09:34:05;;;;;;;2.50;2.30;;;;;;;;;;5004681;28;20177;-47
2021/05/24 09:36:30;;;;;;;2.23;1.80;;;;;;;;;;5005848;28;20180;-48
2021/05/24 09:39:00;;;;;;;2.73;1.90;;;;;;;;;;4990351;28;20594;-48
2021/05/24 09:41:25;;;;;;;1.70;1.60;;;;;;;;;;4985384;28;20177;-48
2021/05/24 09:43:52;;;;;;;1.37;1.27;;;;;;;;;;4986736;28;21288;-48
2021/05/24 09:46:18;;;;;;;1.53;1.43;;;;;;;;;;4986720;28;20177;-47
2021/05/24 09:48:44;;;;;;;2.30;1.37;;;;;;;;;;4988059;28;21449;-48
2021/05/24 09:51:12;;;;;;;1.40;1.30;;;;;;;;;;5006255;28;20364;-47
2021/05/24 09:53:37;;;;;;;1.50;1.40;;;;;;;;;;5006484;28;20617;-47
2021/05/24 09:56:03;;;;;;;1.83;1.73;;;;;;;;;;5006035;28;21177;-48
2021/05/24 09:58:28;;;;;;;1.37;1.27;;;;;;;;;;5007926;28;20267;-48
2021/05/24 10:01:02;;;;;;;1.20;1.10;;;;;;;;;;5007258;28;21075;-47
2021/05/24 10:03:32;;;;;;;2.10;1.60;;;;;;;;;;5009336;28;20252;-47
2021/05/24 10:05:57;;;;;;;2.60;1.40;;;;;;;;;;4989958;28;20740;-46
2021/05/24 10:08:23;;;;;;;1.80;1.47;;;;;;;;;;5000695;28;21237;-47
2021/05/24 10:10:48;;;;;;;1.50;1.40;;;;;;;;;;5009084;28;20509;-47
2021/05/24 10:13:14;;;;;;;2.70;1.40;;;;;;;;;;5008982;28;20258;-47
2021/05/24 10:15:39;;;;;;;1.43;1.20;;;;;;;;;;5009360;28;20191;-47
2021/05/24 10:18:05;;;;;;;1.30;1.20;;;;;;;;;;5005146;28;20173;-47
2021/05/24 10:20:31;;;;;;;1.53;1.23;;;;;;;;;;4987573;28;20263;-47
2021/05/24 10:22:57;;;;;;;1.87;1.50;;;;;;;;;;4989878;28;20197;-48
2021/05/24 10:25:23;;;;;;;2.00;1.47;;;;;;;;;;4987403;28;20658;-48
2021/05/24 10:27:48;;;;;;;1.70;1.60;;;;;;;;;;4988995;28;20212;-48
2021/05/24 10:30:14;;;;;;;1.30;1.20;;;;;;;;;;4987797;28;20217;-48
2021/05/24 10:33:12;;;;;;;3.40;1.30;;;;;;;;;;4988410;28;20181;-48
2021/05/24 10:35:42;;;;;;;5.77;1.53;;;;;;;;;;4957302;28;20189;-47
2021/05/24 10:38:19;;;;;;;1.77;1.40;;;;;;;;;;4984531;28;21197;-48
2021/05/24 10:40:45;;;;;;;1.30;1.20;;;;;;;;;;4982069;28;20626;-47
2021/05/24 10:43:12;;;;;;;1.20;1.20;;;;;;;;;;4981674;28;20974;-48
2021/05/24 10:45:38;;;;;;;2.50;1.60;;;;;;;;;;4993018;28;20213;-49
2021/05/24 10:48:03;;;;;;;1.80;1.67;;;;;;;;;;4986036;28;20583;-47
2021/05/24 10:50:30;;;;;;;2.03;1.40;;;;;;;;;;4984566;28;20700;-48
2021/05/24 10:52:57;;;;;;;2.40;1.63;;;;;;;;;;4988789;28;20182;-48
2021/05/24 10:55:25;;;;;;;1.60;1.50;;;;;;;;;;4987757;28;20666;-47
2021/05/24 10:57:57;;;;;;;1.70;1.60;;;;;;;;;;4985935;28;21171;-48
2021/05/24 11:00:23;;;;;;;1.60;1.50;;;;;;;;;;4980535;28;20636;-47
2021/05/24 11:02:52;;;;;;;1.50;1.40;;;;;;;;;;4989553;28;20651;-46
2021/05/24 11:05:22;;;;;;;2.97;1.93;;;;;;;;;;4988138;28;20209;-46
2021/05/24 11:07:48;;;;;;;2.10;1.80;;;;;;;;;;4987473;28;20609;-49
2021/05/24 11:10:13;;;;;;;2.47;1.77;;;;;;;;;;4982800;28;20616;-47
2021/05/24 11:12:39;;;;;;;4.90;1.57;;;;;;;;;;4985491;28;20783;-47
2021/05/24 11:15:15;;;;;;;2.03;1.70;;;;;;;;;;4973819;28;20641;-47
2021/05/24 11:17:52;;;;;;;7.10;2.77;;;;;;;;;;4984407;28;20605;-48
2021/05/24 11:20:32;;;;;;;1.97;1.43;;;;;;;;;;4988906;28;20598;-47
2021/05/24 11:26:13;;;;;;;1.60;1.50;;;;;;;;;;4975057;28;20660;-47
2021/05/24 11:28:52;;;;;;;2.20;1.60;;;;;;;;;;4988064;28;21174;-49
2021/05/24 11:31:22;;;;;;;1.47;1.37;;;;;;;;;;4990451;28;21057;-49
2021/05/24 11:33:50;;;;;;;1.60;1.43;;;;;;;;;;4989038;28;20692;-48
2021/05/24 11:36:16;;;;;;;1.70;1.60;;;;;;;;;;4973709;28;20605;-48
2021/05/24 11:39:15;;;;;;;1.90;1.80;;;;;;;;;;4976552;28;20637;-47
2021/05/24 11:41:44;;;;;;;1.47;1.33;;;;;;;;;;4970986;28;21191;-48
2021/05/24 11:44:09;;;;;;;1.60;1.50;;;;;;;;;;4982862;28;20647;-48
2021/05/24 11:46:45;;;;;;;1.53;1.43;;;;;;;;;;4984518;28;21119;-48
2021/05/24 11:49:11;;;;;;;2.70;1.30;;;;;;;;;;4984945;28;20167;-47
2021/05/24 11:51:36;;;;;;;1.50;1.40;;;;;;;;;;4993344;28;20655;-47
2021/05/24 11:54:06;;;;;;;1.60;1.50;;;;;;;;;;4984353;28;20204;-48
2021/05/24 11:56:37;;;;;;;2.60;1.77;;;;;;;;;;4973315;28;20245;-47
2021/05/24 11:59:02;;;;;;;2.03;1.93;;;;;;;;;;4976428;28;20722;-47
2021/05/24 12:01:28;;;;;;;1.77;1.67;;;;;;;;;;4980603;28;20715;-47
2021/05/24 12:03:54;;;;;;;1.83;1.73;;;;;;;;;;4983322;28;20198;-47
2021/05/24 12:06:19;;;;;;;1.70;1.60;;;;;;;;;;4982654;28;20186;-47
2021/05/24 12:08:45;;;;;;;1.57;1.50;;;;;;;;;;4978601;28;20277;-47
2021/05/24 12:11:12;;;;;;;1.80;1.70;;;;;;;;;;4983896;28;20592;-46
2021/05/24 12:14:13;;;;;;;1.90;1.80;;;;;;;;;;4983017;28;20623;-48
2021/05/24 12:16:38;;;;;;;2.00;1.90;;;;;;;;;;4959592;28;20626;-49
2021/05/24 12:19:05;;;;;;;1.98;1.50;;;;;;;;;;4964881;28;20602;-48
2021/05/24 12:21:31;;;;;;;1.80;1.70;;;;;;;;;;4990574;28;20730;-47
2021/05/24 12:23:57;;;;;;;2.60;1.80;;;;;;;;;;4973391;28;20613;-48
2021/05/24 12:26:23;;;;;;;1.80;1.67;;;;;;;;;;5002666;28;20654;-46
2021/05/24 12:28:48;;;;;;;2.33;1.90;;;;;;;;;;5004186;28;20633;-46
2021/05/24 12:31:13;;;;;;;2.00;1.90;;;;;;;;;;4982337;28;20283;-48
2021/05/24 12:33:41;;;;;;;3.93;1.77;;;;;;;;;;4983459;28;20190;-48
2021/05/24 12:36:06;;;;;;;2.50;1.87;;;;;;;;;;4985671;28;20187;-54
2021/05/24 12:38:33;;;;;;;2.07;1.97;;;;;;;;;;4968002;28;20641;-46
2021/05/24 12:41:00;;;;;;;2.90;2.00;;;;;;;;;;4977470;28;20189;-46
2021/05/24 12:43:26;;;;;;;2.07;1.90;;;;;;;;;;4986834;28;20628;-47
2021/05/24 12:45:51;;;;;;;1.83;1.70;;;;;;;;;;4986206;28;20738;-47
2021/05/24 12:48:18;;;;;;;3.93;1.70;;;;;;;;;;4981599;28;20189;-46
2021/05/24 12:50:46;;;;;;;2.10;1.87;;;;;;;;;;4986876;28;20183;-47
2021/05/24 12:53:12;;;;;;;2.00;1.90;;;;;;;;;;4988310;28;20629;-47
2021/05/24 12:55:37;;;;;;;2.87;2.33;;;;;;;;;;4983599;28;20646;-46
2021/05/24 12:58:08;;;;;;;1.80;1.70;;;;;;;;;;4985065;28;20593;-48
2021/05/24 13:00:39;;;;;;;1.70;1.60;;;;;;;;;;4982123;28;20183;-48
2021/05/24 13:03:04;;;;;;;3.37;1.90;;;;;;;;;;4978763;28;20673;-48
2021/05/24 13:05:29;;;;;;;2.87;2.20;;;;;;;;;;4984527;28;21247;-49
2021/05/24 13:07:56;;;;;;;2.00;1.90;;;;;;;;;;4991968;28;20270;-49
2021/05/24 13:10:38;;;;;;;2.80;2.17;;;;;;;;;;4985495;28;20169;-46
2021/05/24 13:13:17;;;;;;;2.30;2.10;;;;;;;;;;4979934;28;20872;-47
2021/05/24 13:15:46;;;;;;;2.83;1.80;;;;;;;;;;4968204;28;20677;-48
2021/05/24 13:18:32;;;;;;;2.40;2.20;;;;;;;;;;4983561;28;20948;-48
2021/05/24 13:21:14;;;;;;;2.30;2.10;;;;;;;;;;4983005;28;20620;-49
2021/05/24 13:24:06;;;;;;;2.20;2.00;;;;;;;;;;4970025;28;20597;-48
2021/05/24 13:29:29;;;;;;;4.43;2.10;;;;;;;;;;4983656;28;20613;-48
2021/05/24 13:31:54;;;;;;;2.87;2.30;;;;;;;;;;4986451;28;20595;-49
2021/05/24 13:34:19;;;;;;;1.70;1.60;;;;;;;;;;4985570;28;20608;-49
2021/05/24 13:36:45;;;;;;;3.45;1.58;;;;;;;;;;5007691;28;20218;-49
2021/05/24 13:39:14;;;;;;;1.70;1.60;;;;;;;;;;5005957;28;20209;-49
2021/05/24 13:41:40;;;;;;;4.03;2.27;;;;;;;;;;5005152;28;20270;-47
2021/05/24 13:44:07;;;;;;;1.93;1.57;;;;;;;;;;5000138;28;21009;-47
2021/05/24 13:46:32;;;;;;;2.47;1.80;;;;;;;;;;5002688;28;20604;-48
2021/05/24 13:48:57;;;;;;;1.70;1.60;;;;;;;;;;5010253;28;21129;-47
2021/05/24 13:51:23;;;;;;;2.00;1.90;;;;;;;;;;5006014;28;20566;-46
2021/05/24 13:53:49;;;;;;;1.57;1.47;;;;;;;;;;5007363;28;20246;-46
2021/05/24 13:56:14;;;;;;;1.80;1.70;;;;;;;;;;5008901;28;20583;-47
2021/05/24 13:58:39;;;;;;;1.60;1.50;;;;;;;;;;4993167;28;20639;-48
2021/05/24 14:01:05;;;;;;;1.60;1.50;;;;;;;;;;4997089;28;20545;-48
2021/05/24 14:03:31;;;;;;;1.70;1.60;;;;;;;;;;5005057;28;20271;-47
2021/05/24 14:05:56;;;;;;;2.77;1.70;;;;;;;;;;5005603;28;20578;-48
2021/05/24 14:08:21;;;;;;;2.37;1.50;;;;;;;;;;5002229;28;20192;-47
2021/05/24 14:10:46;;;;;;;1.50;1.40;;;;;;;;;;5004698;28;20262;-47
2021/05/24 14:13:15;;;;;;;1.60;1.50;;;;;;;;;;5007629;28;20184;-49
2021/05/24 14:15:40;;;;;;;1.70;1.50;;;;;;;;;;4988648;28;20189;-48
2021/05/24 14:18:05;;;;;;;2.30;1.60;;;;;;;;;;4985290;28;20628;-48
2021/05/24 14:20:30;;;;;;;1.63;1.53;;;;;;;;;;4990254;28;20188;-45
2021/05/24 14:22:56;;;;;;;1.33;1.33;;;;;;;;;;4988737;28;20818;-48
2021/05/24 14:25:21;;;;;;;1.40;1.20;;;;;;;;;;4989908;28;20212;-47
2021/05/24 14:27:46;;;;;;;1.90;1.80;;;;;;;;;;4989674;28;20175;-46
2021/05/24 14:30:11;;;;;;;3.70;1.70;;;;;;;;;;4993586;28;20225;-49
2021/05/24 14:32:37;;;;;;;2.00;1.67;;;;;;;;;;4997980;28;20174;-48
2021/05/24 14:35:03;;;;;;;1.40;1.30;;;;;;;;;;4988792;28;20233;-49
2021/05/24 14:37:28;;;;;;;1.97;1.40;;;;;;;;;;5000771;28;20187;-48
2021/05/24 14:39:53;;;;;;;1.77;1.67;;;;;;;;;;4997738;28;20181;-48
2021/05/24 14:42:18;;;;;;;1.73;1.63;;;;;;;;;;4988057;28;20526;-48
2021/05/24 14:44:43;;;;;;;1.80;1.60;;;;;;;;;;4988762;28;20677;-49
2021/05/24 14:47:09;;;;;;;1.50;1.38;;;;;;;;;;4988996;28;20228;-48